Time;durP1;ratioP1;P1;durP2;ratioP2;P2;SDS_P1;SDS_P2;PMS_P1;PMS_P2;Temp;Humidity;BMP_temperature;BMP_pressure;BME280_temperature;BME280_humidity;BME280_pressure;Samples;Min_cycle;Max_cycle;Signal;HPM_P1;HPM_P2
2022/01/15 00:02:24;;;;;;;1.75;0.37;;;;;;;15.09;38.92;97514.99;1721420;82;20868;-71
2022/01/15 00:04:50;;;;;;;4.15;0.50;;;;;;;15.24;38.56;97519.30;1720876;81;20956;-62
2022/01/15 00:07:23;;;;;;;1.60;0.30;;;;;;;15.20;38.57;97520.91;1720414;81;22252;-62
2022/01/15 00:09:52;;;;;;;2.70;0.50;;;;;;;15.19;38.57;97525.92;1721004;81;21437;-63
2022/01/15 00:12:19;;;;;;;1.15;0.42;;;;;;;15.15;38.70;97530.14;1722632;82;21528;-71
2022/01/15 00:14:47;;;;;;;1.27;0.50;;;;;;;15.25;38.51;97531.34;1720296;82;21058;-62
2022/01/15 00:17:20;;;;;;;1.15;0.30;;;;;;;15.13;38.55;97529.65;1722113;81;21531;-70
2022/01/15 00:19:47;;;;;;;1.75;0.30;;;;;;;14.73;39.07;97540.78;1719442;81;21159;-62
2022/01/15 00:22:18;;;;;;;1.30;0.40;;;;;;;14.76;39.07;97547.33;1720417;81;20999;-70
2022/01/15 00:24:45;;;;;;;1.20;0.30;;;;;;;15.24;38.35;97552.63;1723188;82;21621;-62
2022/01/15 00:27:15;;;;;;;1.42;0.23;;;;;;;15.17;38.03;97556.89;1720373;81;20999;-70
2022/01/15 00:29:42;;;;;;;1.95;0.42;;;;;;;14.79;38.76;97565.91;1722691;82;21475;-63
2022/01/15 00:32:08;;;;;;;2.92;0.30;;;;;;;14.80;38.56;97563.53;1721014;81;22231;-70
2022/01/15 00:34:38;;;;;;;0.95;0.30;;;;;;;13.95;39.66;97576.97;1721921;81;20990;-62
2022/01/15 00:37:06;;;;;;;1.85;0.20;;;;;;;14.36;39.01;97574.10;1723513;82;21485;-62
2022/01/15 00:39:32;;;;;;;1.25;0.47;;;;;;;14.79;38.10;97576.94;1721991;81;21532;-63
2022/01/15 00:42:00;;;;;;;0.70;0.20;;;;;;;14.80;37.80;97576.64;1720667;81;22338;-62
2022/01/15 00:44:28;;;;;;;1.32;0.20;;;;;;;14.68;38.02;97589.34;1722583;81;22585;-61
2022/01/15 00:46:54;;;;;;;1.92;0.30;;;;;;;14.74;37.61;97586.94;1721014;81;21003;-64
2022/01/15 00:49:21;;;;;;;1.87;0.50;;;;;;;14.27;38.21;97590.91;1720051;82;21002;-68
2022/01/15 00:51:51;;;;;;;2.42;0.60;;;;;;;14.63;38.00;97604.34;1723044;81;21014;-61
2022/01/15 00:54:18;;;;;;;3.08;0.68;;;;;;;14.11;38.30;97620.34;1721824;82;21100;-61
2022/01/15 00:56:44;;;;;;;1.70;0.40;;;;;;;14.67;37.72;97611.38;1722984;81;21147;-61
2022/01/15 00:59:14;;;;;;;2.85;0.55;;;;;;;15.06;37.13;97603.97;1720731;82;21054;-62
2022/01/15 01:01:40;;;;;;;1.42;0.40;;;;;;;14.79;37.27;97613.11;1719715;82;21022;-62
2022/01/15 01:04:07;;;;;;;1.72;0.50;;;;;;;14.45;37.65;97614.39;1715671;82;21513;-69
2022/01/15 01:06:34;;;;;;;3.00;0.55;;;;;;;14.46;37.73;97619.09;1714800;83;21568;-61
2022/01/15 01:09:00;;;;;;;1.10;0.37;;;;;;;14.03;38.53;97638.47;1714251;83;21169;-62
2022/01/15 01:11:42;;;;;;;2.37;0.50;;;;;;;14.46;38.06;97635.60;1714723;83;20999;-64
2022/01/15 01:24:33;;;;;;;1.85;0.40;;;;;;;14.69;37.23;97660.38;1710912;83;20896;-60
2022/01/15 01:27:08;;;;;;;1.47;0.30;;;;;;;15.04;36.72;97670.38;1712571;83;21014;-61
2022/01/15 01:32:28;;;;;;;1.12;0.30;;;;;;;15.01;36.15;97676.95;1694778;84;21035;-61
2022/01/15 01:34:42;;;;;;;1.42;0.68;;;;;;;14.62;36.28;97697.92;1692855;84;21168;-68
2022/01/15 01:37:26;;;;;;;1.50;0.40;;;;;;;14.42;37.01;97699.33;1710236;83;21034;-65
2022/01/15 01:40:00;;;;;;;1.72;0.40;;;;;;;14.30;37.23;97703.05;1712485;83;21014;-64
2022/01/15 01:45:12;;;;;;;1.65;0.40;;;;;;;14.33;37.37;97716.15;1710721;83;21789;-61
2022/01/15 01:47:42;;;;;;;2.10;0.50;;;;;;;14.65;37.00;97720.98;1710624;82;21176;-61
2022/01/15 01:50:24;;;;;;;3.52;0.53;;;;;;;14.39;37.27;97726.06;1711412;83;20998;-71
2022/01/15 01:52:56;;;;;;;2.87;0.50;;;;;;;14.41;37.24;97733.14;1712909;83;20968;-63
2022/01/15 01:55:25;;;;;;;2.05;0.60;;;;;;;14.21;37.37;97743.97;1714095;83;21085;-64
2022/01/15 01:57:53;;;;;;;1.37;0.45;;;;;;;14.33;37.03;97743.13;1712622;83;21410;-71
2022/01/15 02:00:23;;;;;;;5.37;1.57;;;;;;;14.17;37.01;97749.49;1694595;84;23144;-62
2022/01/15 02:02:50;;;;;;;1.42;0.40;;;;;;;14.31;36.64;97750.99;1715836;83;20992;-66
2022/01/15 02:05:19;;;;;;;2.75;0.50;;;;;;;14.18;36.46;97756.83;1723595;81;21070;-61
2022/01/15 02:07:46;;;;;;;1.72;0.50;;;;;;;14.11;36.29;97755.26;1725432;82;21007;-64
2022/01/15 02:10:16;;;;;;;1.82;0.40;;;;;;;14.43;35.90;97760.63;1724710;82;21078;-61
2022/01/15 02:12:44;;;;;;;1.62;0.37;;;;;;;14.54;35.53;97757.48;1725266;82;22308;-63
2022/01/15 02:15:16;;;;;;;1.72;0.42;;;;;;;14.96;34.80;97756.97;1716974;82;21077;-62
2022/01/15 02:17:45;;;;;;;2.35;0.53;;;;;;;14.14;35.20;97761.81;1716172;82;21010;-70
2022/01/15 02:25:48;;;;;;;1.90;0.33;;;;;;;14.16;35.08;97775.94;1715417;81;21146;-62
2022/01/15 02:28:20;;;;;;;1.82;0.40;;;;;;;14.02;35.10;97784.90;1722254;82;21517;-63
2022/01/15 02:30:48;;;;;;;;;;;;;;;13.97;35.07;97786.20;1723467;82;21553;-61
2022/01/15 02:33:14;;;;;;;1.72;0.35;;;;;;;13.85;35.01;97797.74;1698379;81;20157;-67
2022/01/15 02:35:42;;;;;;;1.30;0.45;;;;;;;14.12;34.82;97792.19;1720121;81;21646;-64
2022/01/15 02:38:12;;;;;;;2.90;0.55;;;;;;;14.24;34.48;97795.81;1719134;82;21116;-62
2022/01/15 02:40:38;;;;;;;2.72;0.60;;;;;;;14.51;34.21;97813.09;1722608;81;21050;-63
2022/01/15 02:43:07;;;;;;;5.53;0.60;;;;;;;15.14;33.28;97813.27;1720579;81;21110;-69
2022/01/15 02:45:37;;;;;;;0.88;0.20;;;;;;;15.00;33.04;97826.73;1721355;82;21045;-62
2022/01/15 02:48:16;;;;;;;1.62;0.50;;;;;;;14.45;33.74;97824.07;1720555;81;20992;-62
2022/01/15 02:50:45;;;;;;;1.12;0.30;;;;;;;13.99;34.44;97828.64;1721482;82;21133;-63
2022/01/15 02:53:14;;;;;;;0.65;0.20;;;;;;;13.74;34.53;97834.14;1715999;81;21524;-69
2022/01/15 02:55:47;;;;;;;1.95;0.30;;;;;;;14.10;34.26;97826.27;1720560;81;21123;-63
2022/01/15 02:58:14;;;;;;;0.98;0.20;;;;;;;13.97;34.44;97838.59;1720049;82;20994;-63
2022/01/15 03:00:41;;;;;;;1.55;0.28;;;;;;;14.10;34.44;97845.39;1721756;81;21039;-62
2022/01/15 03:03:08;;;;;;;1.65;0.30;;;;;;;14.07;34.48;97846.44;1717642;82;22454;-61
2022/01/15 03:05:39;;;;;;;1.05;0.30;;;;;;;14.15;34.44;97856.38;1720223;81;21359;-64
2022/01/15 03:08:06;;;;;;;3.58;0.70;;;;;;;14.07;34.50;97862.16;1720707;82;21009;-62
2022/01/15 03:10:34;;;;;;;1.20;0.40;;;;;;;13.98;34.52;97865.03;1720849;81;21164;-62
2022/01/15 03:13:09;;;;;;;1.80;0.40;;;;;;;14.05;34.29;97861.13;1720264;82;21044;-69
2022/01/15 03:15:30;;;;;;;3.33;0.47;;;;;;;14.39;34.17;97868.38;1719597;82;22645;-63
2022/01/15 03:18:00;;;;;;;1.77;0.33;;;;;;;14.24;34.12;97873.12;1720972;81;21540;-63
2022/01/15 03:20:26;;;;;;;1.42;0.30;;;;;;;13.90;34.74;97873.42;1721804;82;21184;-62
2022/01/15 03:22:52;;;;;;;1.75;0.20;;;;;;;14.22;34.55;97874.45;1720342;82;20991;-63
2022/01/15 03:25:21;;;;;;;0.82;0.30;;;;;;;14.19;34.18;97894.09;1720501;81;21044;-69
2022/01/15 03:27:48;;;;;;;1.32;0.30;;;;;;;14.54;33.86;97895.11;1719863;82;21269;-63
2022/01/15 03:30:17;;;;;;;1.45;0.30;;;;;;;14.44;34.16;97883.33;1720626;81;20970;-62
2022/01/15 03:32:44;;;;;;;1.25;0.30;;;;;;;14.14;34.44;97898.04;1721227;82;20959;-63
2022/01/15 03:35:14;;;;;;;1.47;0.30;;;;;;;14.43;34.27;97894.30;1720300;81;21625;-69
2022/01/15 03:37:40;;;;;;;1.77;0.40;;;;;;;14.44;37.33;97913.47;1721427;82;21131;-62
2022/01/15 03:40:09;;;;;;;1.15;0.23;;;;;;;14.70;37.64;97903.20;1722998;81;21114;-63
2022/01/15 03:42:38;;;;;;;2.40;0.30;;;;;;;14.66;37.29;97910.53;1721249;81;21011;-62
2022/01/15 03:45:06;;;;;;;0.68;0.20;;;;;;;14.57;36.75;97915.55;1722807;81;21122;-68
2022/01/15 03:47:37;;;;;;;1.40;0.40;;;;;;;14.08;36.67;97926.59;1722129;81;21039;-63
2022/01/15 03:50:04;;;;;;;0.88;0.40;;;;;;;14.11;36.23;97933.93;1720097;82;21534;-68
2022/01/15 03:52:31;;;;;;;1.20;0.30;;;;;;;14.24;36.02;97932.08;1722161;81;22552;-63
2022/01/15 03:54:59;;;;;;;1.20;0.35;;;;;;;14.22;36.00;97936.81;1719300;82;20999;-67
2022/01/15 03:57:25;;;;;;;1.65;0.20;;;;;;;14.45;35.63;97938.09;1721774;81;21329;-62
2022/01/15 03:59:51;;;;;;;0.93;0.20;;;;;;;14.25;35.73;97940.75;1721543;82;22397;-63
2022/01/15 04:02:18;;;;;;;1.55;0.30;;;;;;;14.39;35.51;97943.06;1674962;79;21090;-64
2022/01/15 04:04:44;;;;;;;0.70;0.20;;;;;;;14.12;35.82;97953.83;1663612;84;21216;-63
2022/01/15 04:07:13;;;;;;;2.47;0.35;;;;;;;14.39;35.59;97958.80;1663154;84;20980;-62
2022/01/15 04:09:41;;;;;;;1.50;0.20;;;;;;;14.60;35.57;97956.97;1666022;84;21668;-63
2022/01/15 04:12:08;;;;;;;0.95;0.20;;;;;;;14.05;36.50;97971.14;1666254;84;21164;-67
2022/01/15 04:14:35;;;;;;;1.90;0.30;;;;;;;14.15;36.44;97963.80;1667491;84;21172;-63
2022/01/15 04:17:03;;;;;;;0.95;0.20;;;;;;;13.77;37.02;97972.41;1666749;84;21101;-64
2022/01/15 04:19:33;;;;;;;0.82;0.30;;;;;;;13.66;37.35;97973.42;1666132;84;21106;-67
2022/01/15 04:22:00;;;;;;;0.65;0.20;;;;;;;13.52;37.79;97980.97;1667398;84;21020;-63
2022/01/15 04:24:27;;;;;;;3.50;0.37;;;;;;;13.70;37.56;97988.87;1637601;86;21430;-63
2022/01/15 04:26:53;;;;;;;1.65;0.40;;;;;;;13.56;37.77;97984.67;1668282;84;20937;-64
2022/01/15 04:29:21;;;;;;;0.57;0.20;;;;;;;13.79;37.72;97983.94;1666012;84;21161;-63
2022/01/15 04:31:51;;;;;;;1.17;0.55;;;;;;;13.96;37.70;97989.72;1635020;86;20876;-62
2022/01/15 04:34:26;;;;;;;1.00;0.20;;;;;;;14.17;37.52;97983.17;1669507;84;21063;-62
2022/01/15 04:36:56;;;;;;;1.20;0.40;;;;;;;13.63;38.23;97990.42;1635002;86;21153;-63
2022/01/15 04:39:21;;;;;;;1.82;0.40;;;;;;;13.60;38.21;98004.58;1666890;84;21059;-67
2022/01/15 04:41:48;;;;;;;2.10;0.50;;;;;;;13.77;38.13;98003.04;1665455;84;21169;-63
2022/01/15 04:44:15;;;;;;;2.27;0.53;;;;;;;13.84;37.82;98004.36;1667681;84;21100;-68
2022/01/15 04:46:42;;;;;;;2.85;0.30;;;;;;;13.77;37.76;98008.27;1637976;86;21053;-65
2022/01/15 04:49:08;;;;;;;0.62;0.20;;;;;;;13.80;37.61;98016.93;1664399;84;21011;-63
2022/01/15 04:51:37;;;;;;;1.87;0.60;;;;;;;13.99;37.39;98008.84;1636647;86;21466;-68
2022/01/15 04:54:04;;;;;;;2.17;0.50;;;;;;;13.68;37.58;98011.14;1665925;84;21193;-67
2022/01/15 04:56:30;;;;;;;1.80;0.50;;;;;;;13.72;37.59;98028.69;1663008;84;21572;-63
2022/01/15 04:58:57;;;;;;;1.67;0.57;;;;;;;13.66;37.65;98034.95;1661767;84;21075;-62
2022/01/15 05:01:25;;;;;;;4.67;1.12;;;;;;;13.78;37.45;98031.57;1666861;84;20912;-64
2022/01/15 05:03:52;;;;;;;2.98;0.88;;;;;;;13.93;37.33;98036.59;1667067;84;21040;-63
2022/01/15 05:06:18;;;;;;;3.02;0.70;;;;;;;14.07;37.03;98042.91;1666500;84;21566;-68
2022/01/15 05:08:46;;;;;;;2.35;0.65;;;;;;;13.99;37.35;98044.73;1669008;84;21060;-62
2022/01/15 05:11:32;;;;;;;2.27;0.60;;;;;;;14.40;36.93;98044.79;1671622;84;21015;-64
2022/01/15 05:13:58;;;;;;;3.55;0.88;;;;;;;13.84;37.51;98050.19;1667765;84;21055;-67
2022/01/15 05:16:24;;;;;;;2.50;0.82;;;;;;;13.84;37.70;98041.55;1670451;84;21050;-63
2022/01/15 05:18:54;;;;;;;2.80;1.57;;;;;;;13.89;37.64;98061.20;1634576;86;21190;-64
2022/01/15 05:21:20;;;;;;;1.67;0.60;;;;;;;13.83;37.75;98062.25;1635975;86;21040;-66
2022/01/15 05:23:47;;;;;;;3.17;0.40;;;;;;;13.71;37.81;98066.89;1635186;86;21186;-63
2022/01/15 05:26:13;;;;;;;2.92;0.60;;;;;;;13.84;37.47;98071.14;1635166;86;22653;-64
2022/01/15 05:28:40;;;;;;;2.47;0.50;;;;;;;13.80;37.42;98084.48;1637882;86;21528;-63
2022/01/15 05:31:08;;;;;;;2.42;0.40;;;;;;;13.43;37.54;98091.66;1605457;88;21206;-62
2022/01/15 05:33:35;;;;;;;3.20;0.50;;;;;;;13.57;37.55;98088.33;1603008;88;20981;-63
2022/01/15 05:36:03;;;;;;;1.65;0.40;;;;;;;13.33;37.50;98102.34;1606049;88;21064;-63
2022/01/15 05:38:30;;;;;;;2.35;0.50;;;;;;;12.59;38.79;98102.31;1606141;88;21068;-64
2022/01/15 05:40:56;;;;;;;2.55;0.50;;;;;;;12.87;38.57;98111.14;1606817;88;21167;-64
2022/01/15 05:43:23;;;;;;;2.00;0.42;;;;;;;13.09;38.08;98122.81;1609624;87;21824;-65
2022/01/15 05:45:49;;;;;;;1.77;0.50;;;;;;;12.94;38.30;98124.54;1637200;86;21047;-64
2022/01/15 05:48:16;;;;;;;1.00;0.50;;;;;;;12.88;38.04;98123.20;1635439;86;21012;-65
2022/01/15 05:50:43;;;;;;;1.40;0.40;;;;;;;12.96;38.00;98122.48;1637336;86;22520;-63
2022/01/15 05:53:09;;;;;;;2.25;0.33;;;;;;;12.94;37.90;98131.86;1635258;86;21199;-62
2022/01/15 05:55:38;;;;;;;1.65;0.50;;;;;;;12.85;38.37;98136.77;1642135;86;21207;-66
2022/01/15 05:58:07;;;;;;;2.27;0.40;;;;;;;12.82;38.62;98138.57;1634170;86;21546;-68
2022/01/15 06:00:36;;;;;;;2.65;0.40;;;;;;;13.11;38.58;98126.51;1636320;86;21314;-66
2022/01/15 06:03:05;;;;;;;2.02;0.45;;;;;;;13.85;37.63;98130.32;1635789;86;21664;-66
2022/01/15 06:05:32;;;;;;;1.07;0.30;;;;;;;14.40;37.04;98129.97;1636640;86;21123;-68
2022/01/15 06:07:58;;;;;;;2.75;0.45;;;;;;;14.57;35.91;98121.36;1636165;86;21144;-65
2022/01/15 06:10:25;;;;;;;2.75;0.50;;;;;;;14.76;35.41;98128.19;1635266;86;21023;-67
2022/01/15 06:12:52;;;;;;;1.10;0.40;;;;;;;14.43;35.98;98138.60;1633488;86;21122;-66
2022/01/15 06:15:18;;;;;;;2.00;0.60;;;;;;;14.67;36.27;98148.13;1635577;86;20985;-66
2022/01/15 06:17:48;;;;;;;1.92;0.57;;;;;;;15.29;35.98;98150.45;1636842;86;21135;-66
2022/01/15 06:20:17;;;;;;;1.20;0.53;;;;;;;15.67;35.18;98158.02;1661206;84;21136;-69
2022/01/15 06:22:44;;;;;;;3.08;0.70;;;;;;;15.62;35.61;98168.52;1663755;84;21111;-65
2022/01/15 06:25:13;;;;;;;1.40;0.50;;;;;;;16.16;35.30;98175.17;1637575;86;21126;-66
2022/01/15 06:27:40;;;;;;;2.22;0.82;;;;;;;16.26;34.61;98166.47;1636506;86;21104;-66
2022/01/15 06:30:10;;;;;;;2.98;1.15;;;;;;;16.14;34.41;98181.75;1635705;86;21009;-64
2022/01/15 06:32:36;;;;;;;3.52;0.82;;;;;;;15.84;34.39;98195.81;1593108;88;22354;-69
2022/01/15 06:35:08;;;;;;;2.95;0.82;;;;;;;15.46;34.56;98204.53;1629079;86;21082;-66
2022/01/15 06:37:34;;;;;;;2.67;1.10;;;;;;;15.07;34.75;98207.67;1623833;86;21138;-66
2022/01/15 06:40:01;;;;;;;2.45;0.62;;;;;;;15.25;34.70;98213.72;1632205;86;21038;-65
2022/01/15 06:42:29;;;;;;;1.35;0.50;;;;;;;15.65;34.74;98212.64;1631236;86;21035;-66
2022/01/15 06:44:57;;;;;;;2.52;0.40;;;;;;;16.20;33.81;98212.22;1633468;86;21156;-67
2022/01/15 06:47:23;;;;;;;2.27;0.65;;;;;;;16.24;33.63;98214.03;1636622;86;21339;-66
2022/01/15 06:49:50;;;;;;;2.45;0.50;;;;;;;16.68;33.38;98204.09;1632159;86;21633;-67
2022/01/15 06:52:17;;;;;;;1.15;0.30;;;;;;;17.75;32.36;98215.64;1633891;86;21146;-69
2022/01/15 06:54:43;;;;;;;1.85;0.50;;;;;;;18.36;31.70;98212.28;1629287;86;21092;-68
2022/01/15 06:57:10;;;;;;;1.83;0.37;;;;;;;18.54;31.11;98228.42;1663596;84;22892;-64
2022/01/15 06:59:38;;;;;;;1.33;0.40;;;;;;;18.31;30.75;98222.12;1666164;84;21745;-64
2022/01/15 07:02:05;;;;;;;1.73;0.40;;;;;;;18.68;30.80;98225.34;1635423;86;21306;-63
2022/01/15 07:04:33;;;;;;;1.47;0.50;;;;;;;18.63;30.47;98226.70;1637167;86;21328;-69
2022/01/15 07:07:03;;;;;;;2.07;0.70;;;;;;;18.67;30.67;98236.40;1638149;86;21423;-63
2022/01/15 07:09:33;;;;;;;1.80;0.70;;;;;;;18.49;30.73;98247.75;1635019;86;21374;-63
2022/01/15 07:12:03;;;;;;;2.03;0.63;;;;;;;18.58;30.38;98255.27;1608471;87;21295;-63
2022/01/15 07:14:31;;;;;;;4.30;2.40;;;;;;;18.51;30.34;98256.69;1609703;87;21225;-66
2022/01/15 07:16:58;;;;;;;1.37;0.47;;;;;;;18.23;30.46;98268.38;1609948;87;21159;-66
2022/01/15 07:19:25;;;;;;;3.50;0.50;;;;;;;17.96;30.61;98267.62;1633695;86;21463;-65
2022/01/15 07:21:51;;;;;;;1.93;0.40;;;;;;;17.58;31.17;98267.92;1633722;86;22298;-65
2022/01/15 07:24:18;;;;;;;3.33;0.43;;;;;;;17.55;31.54;98278.52;1603709;88;21148;-64
2022/01/15 07:26:50;;;;;;;2.07;0.40;;;;;;;18.23;31.14;98279.70;1635927;86;21351;-68
2022/01/15 07:29:18;;;;;;;4.85;1.70;;;;;;;18.46;30.62;98274.70;1665389;84;22481;-63
2022/01/15 07:31:46;;;;;;;1.97;0.60;;;;;;;18.42;31.37;98279.75;1638128;86;21043;-61
2022/01/15 07:34:14;;;;;;;2.63;0.70;;;;;;;18.63;30.89;98289.50;1639406;84;21325;-61
2022/01/15 07:36:40;;;;;;;1.80;0.40;;;;;;;18.63;30.89;98289.50;1663544;84;21235;-70
2022/01/15 07:39:09;;;;;;;1.30;0.30;;;;;;;18.80;30.39;98283.00;1666454;84;23119;-64
2022/01/15 07:41:36;;;;;;;1.77;0.60;;;;;;;18.93;30.22;98287.56;1603133;88;21539;-63
2022/01/15 07:44:04;;;;;;;1.60;0.60;;;;;;;18.48;30.04;98297.61;1641810;86;21521;-67
2022/01/15 07:46:32;;;;;;;2.67;0.40;;;;;;;18.33;30.37;98297.78;1639522;86;21809;-69
2022/01/15 07:48:58;;;;;;;1.87;0.37;;;;;;;17.79;29.84;98305.47;1606497;87;21557;-67
2022/01/15 07:51:26;;;;;;;1.43;0.50;;;;;;;17.41;30.27;98306.00;1635319;86;21471;-66
2022/01/15 07:53:55;;;;;;;1.40;0.40;;;;;;;17.29;30.65;98312.69;1667652;84;21411;-69
2022/01/15 07:56:21;;;;;;;1.30;0.30;;;;;;;17.66;31.10;98300.29;1665322;84;21178;-68
2022/01/15 07:58:48;;;;;;;3.30;0.70;;;;;;;17.90;31.05;98320.12;1638020;86;21257;-70
2022/01/15 08:01:14;;;;;;;1.13;0.50;;;;;;;18.27;30.83;98320.03;1634783;86;21330;-67
2022/01/15 08:03:44;;;;;;;1.13;0.40;;;;;;;18.32;30.11;98314.15;1637611;86;21071;-69
2022/01/15 08:06:11;;;;;;;1.57;0.50;;;;;;;18.38;30.21;98314.89;1634149;86;21328;-68
2022/01/15 08:08:37;;;;;;;3.30;1.00;;;;;;;18.29;30.55;98334.48;1666425;84;21302;-68
2022/01/15 08:11:05;;;;;;;2.40;0.53;;;;;;;18.97;29.40;98329.48;1664803;84;21320;-67
2022/01/15 08:13:32;;;;;;;1.63;0.67;;;;;;;18.52;29.83;98328.95;1663257;84;21888;-67
2022/01/15 08:16:01;;;;;;;3.83;0.47;;;;;;;18.07;28.84;98346.86;1661890;84;21977;-65
2022/01/15 08:18:28;;;;;;;2.17;0.70;;;;;;;18.07;28.84;98346.86;1662344;84;21208;-67
2022/01/15 08:20:55;;;;;;;3.17;0.70;;;;;;;17.81;29.30;98341.57;1633346;86;21759;-69
2022/01/15 08:23:21;;;;;;;3.20;0.53;;;;;;;17.63;29.28;98350.36;1662662;84;21353;-67
2022/01/15 08:25:48;;;;;;;1.93;0.53;;;;;;;16.91;30.09;98347.39;1664030;84;21719;-67
2022/01/15 08:28:15;;;;;;;2.13;0.60;;;;;;;16.77;30.54;98343.23;1634208;86;21328;-67
2022/01/15 08:30:41;;;;;;;2.20;0.53;;;;;;;16.57;30.99;98344.61;1663619;84;21194;-68
2022/01/15 08:33:08;;;;;;;2.83;0.60;;;;;;;16.43;30.87;98348.86;1664140;84;21110;-72
2022/01/15 08:35:35;;;;;;;2.03;0.60;;;;;;;15.69;31.93;98362.11;1663881;84;21546;-69
2022/01/15 08:38:05;;;;;;;2.20;0.42;;;;;;;15.87;31.92;98356.84;1665976;84;22063;-69
2022/01/15 08:40:32;;;;;;;1.42;0.42;;;;;;;14.78;33.22;98365.56;1631685;86;21537;-67
2022/01/15 08:43:00;;;;;;;1.00;0.20;;;;;;;14.90;33.39;98371.11;1665907;84;21062;-69
2022/01/15 08:45:30;;;;;;;0.90;0.30;;;;;;;14.90;33.54;98369.27;1661245;84;20979;-70
2022/01/15 08:48:00;;;;;;;1.07;0.30;;;;;;;15.03;33.82;98378.48;1667669;84;21369;-67
2022/01/15 08:50:27;;;;;;;1.12;0.28;;;;;;;14.34;34.66;98375.53;1663559;84;21020;-68
2022/01/15 08:52:54;;;;;;;2.50;1.15;;;;;;;14.22;35.11;98380.96;1667099;84;21118;-70
2022/01/15 08:55:28;;;;;;;0.82;0.25;;;;;;;14.15;35.62;98394.02;1634129;86;21027;-71
2022/01/15 08:57:52;;;;;;;1.30;0.30;;;;;;;14.37;35.43;98396.00;1664257;84;21078;-67
2022/01/15 09:00:21;;;;;;;2.42;0.40;;;;;;;14.45;35.65;98401.28;1631211;86;21881;-66
2022/01/15 09:02:47;;;;;;;1.35;0.20;;;;;;;14.18;36.03;98395.61;1665639;84;21086;-68
2022/01/15 09:05:17;;;;;;;2.22;0.42;;;;;;;13.97;36.32;98399.90;1666226;84;21085;-66
2022/01/15 09:07:43;;;;;;;1.95;0.30;;;;;;;14.52;35.89;98399.27;1668586;84;21167;-66
2022/01/15 09:10:11;;;;;;;1.90;0.40;;;;;;;14.79;35.40;98392.05;1665763;84;21569;-67
2022/01/15 09:12:40;;;;;;;2.47;0.40;;;;;;;14.95;35.38;98406.54;1669515;84;20952;-64
2022/01/15 09:15:08;;;;;;;1.80;0.50;;;;;;;14.51;36.18;98406.34;1668288;84;21058;-66
2022/01/15 09:17:34;;;;;;;1.45;0.42;;;;;;;13.86;36.87;98396.44;1665218;84;21153;-68
2022/01/15 09:20:06;;;;;;;1.10;0.20;;;;;;;13.84;37.77;98406.88;1667538;84;21600;-65
2022/01/15 09:22:33;;;;;;;2.02;0.80;;;;;;;13.91;37.49;98404.06;1639835;86;21102;-66
2022/01/15 09:25:00;;;;;;;3.20;1.05;;;;;;;14.09;37.46;98403.16;1635077;86;22457;-71
2022/01/15 09:30:12;;;;;;;2.17;0.30;;;;;;;14.89;36.57;98404.43;1633767;86;21154;-68
2022/01/15 09:32:49;;;;;;;1.55;0.50;;;;;;;14.70;36.43;98398.84;1634716;86;20972;-65
2022/01/15 09:35:22;;;;;;;1.70;0.57;;;;;;;14.30;36.88;98398.05;1609187;87;21011;-71
2022/01/15 09:37:51;;;;;;;2.52;0.80;;;;;;;14.15;37.08;98414.45;1636574;86;21201;-64
2022/01/15 09:40:23;;;;;;;2.08;0.70;;;;;;;14.14;37.03;98406.33;1634001;86;20984;-66
2022/01/15 09:42:50;;;;;;;2.00;1.10;;;;;;;14.47;36.66;98408.36;1604162;88;21049;-73
2022/01/15 09:45:20;;;;;;;2.58;1.12;;;;;;;15.24;36.41;98405.06;1633800;86;21615;-68
2022/01/15 09:47:48;;;;;;;1.80;0.57;;;;;;;15.93;35.92;98398.62;1664914;84;21097;-67
2022/01/15 09:50:16;;;;;;;3.55;1.02;;;;;;;16.45;36.04;98396.73;1661582;84;21162;-68
2022/01/15 09:52:43;;;;;;;2.58;1.12;;;;;;;17.45;34.28;98397.11;1659082;84;22638;-71
2022/01/15 09:55:12;;;;;;;1.62;0.42;;;;;;;17.65;33.63;98384.33;1665246;84;21624;-71
2022/01/15 09:57:39;;;;;;;1.85;0.50;;;;;;;17.19;32.81;98398.56;1661085;84;21118;-63
2022/01/15 10:00:11;;;;;;;1.72;0.40;;;;;;;17.51;32.32;98403.41;1662455;84;20999;-66
2022/01/15 10:02:40;;;;;;;2.55;0.90;;;;;;;17.59;31.73;98403.34;1635919;85;21844;-63
2022/01/15 10:05:08;;;;;;;3.45;0.98;;;;;;;16.57;32.86;98403.80;1637108;86;21025;-65
2022/01/15 10:07:34;;;;;;;2.47;0.60;;;;;;;17.20;32.75;98398.06;1634216;86;21012;-63
2022/01/15 10:10:14;;;;;;;4.28;1.12;;;;;;;17.30;32.02;98399.84;1635141;86;21146;-62
2022/01/15 10:12:43;;;;;;;4.53;1.20;;;;;;;16.77;32.00;98407.70;1659024;84;21035;-67
2022/01/15 10:15:11;;;;;;;1.95;0.47;;;;;;;15.67;32.59;98409.63;1661316;84;21007;-66
2022/01/15 10:17:40;;;;;;;1.75;0.70;;;;;;;15.15;33.17;98419.72;1634035;86;21062;-66
2022/01/15 10:20:13;;;;;;;1.30;0.30;;;;;;;14.72;34.02;98420.86;1634350;86;20971;-63
2022/01/15 10:22:45;;;;;;;3.52;0.80;;;;;;;15.24;33.34;98414.78;1634379;86;21086;-63
2022/01/15 10:25:18;;;;;;;2.15;0.60;;;;;;;15.35;33.03;98419.54;1634567;86;21484;-67
2022/01/15 10:27:50;;;;;;;1.10;0.40;;;;;;;14.96;33.36;98415.98;1662451;84;21388;-68
2022/01/15 10:30:21;;;;;;;3.02;0.60;;;;;;;15.05;33.47;98427.05;1662790;84;21490;-72
2022/01/15 10:33:01;;;;;;;1.90;0.45;;;;;;;15.25;33.49;98431.58;1638372;86;22122;-63
2022/01/15 10:35:38;;;;;;;1.75;0.40;;;;;;;15.23;33.38;98430.27;1632200;86;22073;-62
2022/01/15 10:38:09;;;;;;;1.12;0.40;;;;;;;15.32;33.23;98422.94;1600381;87;21049;-63
2022/01/15 10:40:48;;;;;;;1.90;0.40;;;;;;;15.14;33.36;98423.92;1628372;86;21160;-62
2022/01/15 10:43:18;;;;;;;1.70;1.00;;;;;;;15.44;33.06;98425.85;1662098;84;22285;-62
2022/01/15 10:45:52;;;;;;;1.20;0.30;;;;;;;15.10;33.44;98428.90;1630719;86;21051;-61
2022/01/15 10:48:31;;;;;;;1.52;0.53;;;;;;;14.96;33.53;98442.22;1658584;84;21146;-65
2022/01/15 10:51:05;;;;;;;2.35;0.70;;;;;;;14.95;33.59;98432.25;1662259;84;21189;-65
2022/01/15 10:53:47;;;;;;;1.85;0.60;;;;;;;14.49;34.09;98439.06;1660761;84;21167;-61
2022/01/15 10:56:15;;;;;;;4.70;0.78;;;;;;;14.89;33.82;98441.66;1660164;84;21087;-75
2022/01/15 10:58:45;;;;;;;1.47;0.47;;;;;;;14.82;33.85;98445.31;1663165;84;21757;-69
2022/01/15 11:01:14;;;;;;;2.85;0.55;;;;;;;14.92;33.90;98458.20;1632567;86;21162;-71
2022/01/15 11:03:46;;;;;;;2.47;0.50;;;;;;;14.35;34.75;98454.42;1632411;85;21170;-63
2022/01/15 11:06:12;;;;;;;;;;;;;;;14.54;35.17;98457.46;1658867;85;21174;-61
2022/01/15 11:08:40;;;;;;;1.90;0.50;;;;;;;14.14;35.85;98460.56;1655985;85;20249;-61
2022/01/15 11:11:09;;;;;;;2.15;0.82;;;;;;;13.75;36.97;98461.55;1655948;85;21726;-70
2022/01/15 11:13:40;;;;;;;2.65;1.07;;;;;;;13.61;37.47;98461.66;1659242;85;21007;-63
2022/01/15 11:16:14;;;;;;;2.00;0.30;;;;;;;13.53;38.26;98473.36;1657793;85;21067;-60
2022/01/15 11:18:44;;;;;;;1.15;0.30;;;;;;;13.92;38.25;98480.28;1659894;85;21869;-61
2022/01/15 11:21:21;;;;;;;3.45;0.57;;;;;;;14.43;38.09;98480.16;1661766;85;21083;-60
2022/01/15 11:23:50;;;;;;;1.30;0.40;;;;;;;14.44;38.05;98486.22;1659643;85;21548;-59
2022/01/15 11:26:24;;;;;;;1.15;0.42;;;;;;;14.58;37.96;98488.69;1670904;84;20959;-61
2022/01/15 11:28:58;;;;;;;2.58;0.50;;;;;;;13.93;38.81;98484.47;1635025;86;21003;-64
2022/01/15 11:31:37;;;;;;;1.30;0.33;;;;;;;14.22;38.69;98485.00;1664922;84;21103;-67
2022/01/15 11:34:05;;;;;;;2.00;0.50;;;;;;;14.27;38.47;98492.37;1646708;84;22355;-62
2022/01/15 11:36:39;;;;;;;4.45;0.85;;;;;;;13.99;38.89;98492.14;1662897;84;21112;-67
2022/01/15 11:39:13;;;;;;;2.72;0.90;;;;;;;13.69;39.30;98498.39;1669893;84;22363;-63
2022/01/15 11:41:44;;;;;;;3.47;1.50;;;;;;;13.46;39.58;98498.14;1666033;84;21083;-60
2022/01/15 11:44:30;;;;;;;7.53;1.55;;;;;;;13.34;39.84;98496.95;1663098;84;21167;-61
2022/01/15 11:47:17;;;;;;;1.55;0.60;;;;;;;13.21;39.72;98501.98;1664985;84;20945;-68
2022/01/15 11:49:49;;;;;;;2.40;0.62;;;;;;;12.81;40.25;98508.28;1665642;84;20988;-65
2022/01/15 11:52:22;;;;;;;2.72;0.78;;;;;;;12.90;40.08;98503.42;1665076;84;21167;-61
2022/01/15 11:55:03;;;;;;;3.20;0.80;;;;;;;12.82;40.03;98513.77;1662289;84;21166;-60
2022/01/15 11:57:36;;;;;;;2.92;0.78;;;;;;;13.02;39.71;98505.41;1667485;84;20975;-67
2022/01/15 12:00:08;;;;;;;3.60;0.80;;;;;;;13.24;39.36;98507.30;1665871;84;21583;-62
2022/01/15 12:02:43;;;;;;;3.47;0.53;;;;;;;13.18;39.39;98509.53;1662595;84;21075;-58
2022/01/15 12:05:25;;;;;;;4.72;0.60;;;;;;;13.29;39.12;98508.13;1657599;84;20991;-62
2022/01/15 12:08:05;;;;;;;2.42;0.80;;;;;;;13.11;39.35;98514.44;1646638;85;21009;-67